Time;durP1;ratioP1;P1;durP2;ratioP2;P2;SDS_P1;SDS_P2;PMS_P1;PMS_P2;Temp;Humidity;BMP_temperature;BMP_pressure;BME280_temperature;BME280_humidity;BME280_pressure;Samples;Min_cycle;Max_cycle;Signal;HPM_P1;HPM_P2
2023/09/24 00:03:53;;;;;;;;;;;7.70;99.90;;;;;;21077259;28;19923;-79
2023/09/24 00:13:54;;;;;;;;;;;7.60;99.90;;;;;;21018532;28;19958;-76
2023/09/24 00:23:56;;;;;;;;;;;7.50;99.90;;;;;;21017866;28;19916;-76
2023/09/24 00:33:57;;;;;;;;;;;7.60;99.90;;;;;;21064858;28;19912;-76
2023/09/24 00:43:58;;;;;;;;;;;7.60;99.90;;;;;;21049273;28;19923;-76
2023/09/24 00:53:59;;;;;;;;;;;7.80;99.90;;;;;;21058551;28;19916;-77
2023/09/24 01:04:03;;;;;;;;;;;7.40;99.90;;;;;;21062599;28;19920;-76
2023/09/24 01:14:04;;;;;;;;;;;7.40;99.90;;;;;;21060392;28;19918;-76
2023/09/24 01:24:06;;;;;;;;;;;7.40;99.90;;;;;;21055466;28;19939;-76
2023/09/24 01:34:09;;;;;;;;;;;7.20;99.90;;;;;;21011662;28;19920;-76
2023/09/24 01:44:09;;;;;;;;;;;7.10;99.90;;;;;;21059184;28;20390;-76
2023/09/24 01:54:10;;;;;;;;;;;6.90;99.90;;;;;;21055184;28;19977;-76
2023/09/24 02:04:11;;;;;;;;;;;6.80;99.90;;;;;;21051672;28;19920;-76
2023/09/24 02:14:12;;;;;;;;;;;6.70;99.90;;;;;;21058389;28;20409;-76
2023/09/24 02:24:13;;;;;;;;;;;6.70;99.90;;;;;;21046839;28;20007;-74
2023/09/24 02:34:14;;;;;;;;;;;7.10;99.90;;;;;;21055940;28;19912;-76
2023/09/24 02:44:17;;;;;;;;;;;7.20;99.90;;;;;;21055088;28;19931;-76
2023/09/24 02:54:18;;;;;;;;;;;7.00;99.90;;;;;;21056361;28;19919;-76
2023/09/24 03:04:19;;;;;;;;;;;6.90;99.90;;;;;;21072570;28;19916;-75
2023/09/24 03:14:20;;;;;;;;;;;6.70;99.90;;;;;;20978946;28;19927;-75
2023/09/24 03:24:22;;;;;;;;;;;6.40;99.90;;;;;;20990418;28;19916;-75
2023/09/24 03:34:24;;;;;;;;;;;6.40;99.90;;;;;;20993555;28;20322;-75
2023/09/24 03:44:24;;;;;;;;;;;6.50;99.90;;;;;;20970101;28;19921;-76
2023/09/24 03:54:26;;;;;;;;;;;6.40;99.90;;;;;;20971555;28;20059;-75
2023/09/24 04:04:26;;;;;;;;;;;6.20;99.90;;;;;;20962672;28;19916;-76
2023/09/24 04:14:27;;;;;;;;;;;6.20;99.90;;;;;;20947856;28;19919;-76
2023/09/24 04:24:28;;;;;;;;;;;6.00;99.90;;;;;;20945803;28;19970;-76
2023/09/24 04:34:29;;;;;;;;;;;6.10;99.90;;;;;;20945040;28;19913;-76
2023/09/24 04:44:30;;;;;;;;;;;6.20;99.90;;;;;;20914033;28;19938;-75
2023/09/24 04:54:31;;;;;;;;;;;6.30;99.90;;;;;;20921714;28;19917;-76
2023/09/24 05:04:32;;;;;;;;;;;6.30;99.90;;;;;;20913612;28;19917;-76
2023/09/24 05:14:33;;;;;;;;;;;6.20;99.90;;;;;;20919085;28;19921;-76
2023/09/24 05:24:34;;;;;;;;;;;6.40;99.90;;;;;;20910229;28;19984;-76
2023/09/24 05:34:35;;;;;;;;;;;6.70;99.90;;;;;;20910830;28;19913;-76
2023/09/24 05:44:35;;;;;;;;;;;6.70;99.90;;;;;;20931706;28;19922;-76
2023/09/24 05:54:36;;;;;;;;;;;6.80;99.90;;;;;;20960093;28;19912;-75
2023/09/24 06:04:36;;;;;;;;;;;7.10;99.90;;;;;;20946457;28;19920;-76
2023/09/24 06:14:37;;;;;;;;;;;7.40;99.90;;;;;;20952569;28;19912;-76
2023/09/24 06:24:38;;;;;;;;;;;8.00;99.90;;;;;;20967848;28;19917;-76
2023/09/24 06:34:38;;;;;;;;;;;8.70;99.90;;;;;;20961009;28;20395;-75
2023/09/24 06:44:39;;;;;;;;;;;9.80;99.90;;;;;;20922742;28;20007;-75
2023/09/24 06:54:40;;;;;;;;;;;9.70;99.90;;;;;;20906993;28;19912;-75
2023/09/24 07:04:40;;;;;;;;;;;10.50;99.90;;;;;;20906462;28;19979;-76
2023/09/24 07:14:41;;;;;;;;;;;11.60;99.90;;;;;;20906354;28;19955;-75
2023/09/24 07:24:42;;;;;;;;;;;12.40;99.90;;;;;;20970396;28;19916;-75
2023/09/24 07:34:46;;;;;;;;;;;12.90;99.90;;;;;;20961844;28;20055;-76
2023/09/24 07:44:47;;;;;;;;;;;14.20;99.90;;;;;;20951231;28;19920;-75
2023/09/24 07:54:48;;;;;;;;;;;15.30;99.90;;;;;;20946527;28;20382;-75
2023/09/24 08:04:49;;;;;;;;;;;15.20;99.90;;;;;;20974359;28;19918;-77
2023/09/24 08:14:50;;;;;;;;;;;15.20;99.90;;;;;;20973575;28;19975;-77
2023/09/24 08:24:51;;;;;;;;;;;15.20;99.90;;;;;;20975723;28;19916;-77
2023/09/24 08:34:51;;;;;;;;;;;16.20;99.90;;;;;;20973762;28;19916;-77
2023/09/24 08:45:10;;;;;;;;;;;15.80;99.90;;;;;;20977767;28;20010;-77
2023/09/24 08:55:11;;;;;;;;;;;16.40;99.90;;;;;;20957979;28;20004;-76
2023/09/24 09:05:22;;;;;;;;;;;17.40;99.90;;;;;;20959794;28;20290;-77
2023/09/24 09:15:23;;;;;;;;;;;18.00;99.90;;;;;;20963310;28;19913;-76
2023/09/24 09:25:23;;;;;;;;;;;18.20;99.90;;;;;;20931777;28;19939;-76
2023/09/24 09:35:30;;;;;;;;;;;18.50;99.90;;;;;;20975497;28;19912;-76
2023/09/24 09:45:31;;;;;;;;;;;19.60;99.90;;;;;;20963329;28;19970;-76
2023/09/24 09:55:34;;;;;;;;;;;20.60;99.90;;;;;;20956093;28;19921;-76
2023/09/24 10:05:35;;;;;;;;;;;20.80;99.90;;;;;;20941408;28;19923;-77
2023/09/24 10:15:36;;;;;;;;;;;21.30;99.90;;;;;;20920360;28;19912;-76
2023/09/24 10:25:39;;;;;;;;;;;21.60;99.90;;;;;;20923447;28;19924;-75
2023/09/24 10:36:00;;;;;;;;;;;20.90;99.90;;;;;;20938805;28;19913;-75
2023/09/24 10:46:20;;;;;;;;;;;21.50;99.90;;;;;;20915730;28;19917;-74
2023/09/24 10:56:21;;;;;;;;;;;22.30;99.90;;;;;;20954356;28;20409;-76
2023/09/24 11:06:29;;;;;;;;;;;22.00;99.90;;;;;;20949459;28;19928;-76
2023/09/24 11:16:30;;;;;;;;;;;22.50;99.90;;;;;;20956541;28;20341;-74
2023/09/24 11:26:31;;;;;;;;;;;21.40;99.90;;;;;;20992904;28;19994;-74
2023/09/24 11:36:31;;;;;;;;;;;21.70;99.90;;;;;;20927899;28;19923;-75
2023/09/24 11:46:32;;;;;;;;;;;22.80;99.90;;;;;;20936264;28;20339;-74
2023/09/24 11:56:33;;;;;;;;;;;22.70;99.90;;;;;;20922022;28;19913;-74
2023/09/24 12:06:35;;;;;;;;;;;22.10;99.90;;;;;;20918815;28;19924;-74
2023/09/24 12:16:35;;;;;;;;;;;21.70;99.90;;;;;;20917474;28;19948;-75
2023/09/24 12:26:36;;;;;;;;;;;20.70;99.90;;;;;;20915305;28;19917;-75
2023/09/24 12:36:37;;;;;;;;;;;21.20;99.90;;;;;;20931012;28;20411;-75
2023/09/24 12:46:37;;;;;;;;;;;22.30;99.90;;;;;;20943620;28;20010;-75
2023/09/24 12:56:38;;;;;;;;;;;22.60;99.90;;;;;;20986603;28;20422;-76
2023/09/24 13:06:42;;;;;;;;;;;22.80;99.90;;;;;;20978836;28;19917;-75
2023/09/24 13:16:44;;;;;;;;;;;23.40;99.60;;;;;;20966627;28;20322;-75
2023/09/24 13:26:45;;;;;;;;;;;22.20;99.90;;;;;;20965072;28;20295;-74
2023/09/24 13:36:45;;;;;;;;;;;22.50;99.90;;;;;;20964535;28;20004;-75
2023/09/24 13:46:46;;;;;;;;;;;22.50;99.90;;;;;;20918572;28;19917;-74
2023/09/24 13:56:47;;;;;;;;;;;22.60;98.60;;;;;;20933600;28;19913;-74
2023/09/24 14:06:49;;;;;;;;;;;23.30;97.90;;;;;;20924199;28;20213;-74
2023/09/24 14:16:50;;;;;;;;;;;22.90;98.10;;;;;;20908848;28;20387;-74
2023/09/24 14:26:50;;;;;;;;;;;22.30;97.60;;;;;;20915258;28;19924;-74
2023/09/24 14:36:51;;;;;;;;;;;22.60;97.50;;;;;;20922801;28;19913;-75
2023/09/24 14:46:52;;;;;;;;;;;22.70;97.60;;;;;;20936005;28;19990;-75
2023/09/24 14:56:52;;;;;;;;;;;22.20;96.30;;;;;;20962261;28;19913;-75
2023/09/24 15:06:53;;;;;;;;;;;22.40;96.20;;;;;;20951654;28;19923;-75
2023/09/24 15:16:54;;;;;;;;;;;21.90;96.50;;;;;;21002060;28;20438;-76
2023/09/24 15:26:54;;;;;;;;;;;21.80;96.80;;;;;;21001193;28;19999;-74
2023/09/24 15:36:55;;;;;;;;;;;21.60;97.60;;;;;;20990727;28;19966;-74
2023/09/24 15:46:55;;;;;;;;;;;21.20;96.90;;;;;;20982592;28;19918;-75
2023/09/24 15:56:56;;;;;;;;;;;20.90;97.40;;;;;;20990348;28;19912;-74
2023/09/24 16:06:58;;;;;;;;;;;20.10;98.90;;;;;;20987462;28;19939;-75
2023/09/24 16:16:58;;;;;;;;;;;19.30;99.90;;;;;;20941770;28;19986;-75
2023/09/24 16:26:59;;;;;;;;;;;19.10;99.90;;;;;;20920557;28;19944;-74
2023/09/24 16:37:00;;;;;;;;;;;19.00;99.90;;;;;;20929994;28;19916;-75
2023/09/24 16:47:01;;;;;;;;;;;18.50;99.90;;;;;;20921873;28;20054;-74
2023/09/24 16:57:03;;;;;;;;;;;18.20;99.90;;;;;;20943056;28;20411;-75
2023/09/24 17:07:04;;;;;;;;;;;17.50;99.90;;;;;;20955456;28;19956;-75
2023/09/24 17:17:05;;;;;;;;;;;17.00;99.90;;;;;;20939112;28;19913;-75
2023/09/24 17:27:06;;;;;;;;;;;16.80;99.90;;;;;;20938157;28;19970;-74
2023/09/24 17:37:06;;;;;;;;;;;16.30;99.90;;;;;;20940259;28;20397;-75
2023/09/24 17:47:07;;;;;;;;;;;16.00;99.90;;;;;;20938543;28;19917;-75
2023/09/24 17:57:07;;;;;;;;;;;15.80;99.90;;;;;;20924691;28;20055;-75
2023/09/24 18:07:08;;;;;;;;;;;15.30;99.90;;;;;;20948862;28;19962;-76
2023/09/24 18:17:09;;;;;;;;;;;15.30;99.90;;;;;;20931196;28;20338;-75
2023/09/24 18:27:09;;;;;;;;;;;15.00;99.90;;;;;;20931140;28;19917;-76
2023/09/24 18:37:10;;;;;;;;;;;14.90;99.90;;;;;;20911991;28;19940;-76
2023/09/24 18:47:11;;;;;;;;;;;14.30;99.90;;;;;;20907761;28;19917;-75
2023/09/24 18:57:11;;;;;;;;;;;13.90;99.90;;;;;;20915471;28;19917;-76
2023/09/24 19:07:12;;;;;;;;;;;13.60;99.90;;;;;;20907763;28;19995;-75
2023/09/24 19:17:15;;;;;;;;;;;13.40;99.90;;;;;;20922715;28;19948;-74
2023/09/24 19:27:16;;;;;;;;;;;13.10;99.90;;;;;;20904719;28;19920;-75
2023/09/24 19:37:16;;;;;;;;;;;13.10;99.90;;;;;;20918575;28;20546;-75
2023/09/24 19:47:19;;;;;;;;;;;13.10;99.90;;;;;;20954867;28;20011;-75
2023/09/24 19:57:20;;;;;;;;;;;12.80;99.90;;;;;;20927831;28;19916;-75
2023/09/24 20:07:20;;;;;;;;;;;12.40;99.90;;;;;;20913742;28;20326;-75
2023/09/24 20:17:21;;;;;;;;;;;12.50;99.90;;;;;;20954202;28;19941;-75
2023/09/24 20:27:21;;;;;;;;;;;12.20;99.90;;;;;;20934742;28;19966;-75
2023/09/24 20:37:22;;;;;;;;;;;12.10;99.90;;;;;;20933936;28;20294;-75
2023/09/24 20:47:24;;;;;;;;;;;11.90;99.90;;;;;;20928434;28;20375;-75
2023/09/24 20:57:24;;;;;;;;;;;11.70;99.90;;;;;;20937847;28;19913;-75
2023/09/24 21:07:25;;;;;;;;;;;11.80;99.90;;;;;;20919729;28;19943;-75
2023/09/24 21:17:26;;;;;;;;;;;12.10;99.90;;;;;;20917461;28;20379;-75
2023/09/24 21:27:27;;;;;;;;;;;11.70;99.90;;;;;;20937086;28;19917;-75
2023/09/24 21:37:30;;;;;;;;;;;11.90;99.90;;;;;;20939262;28;19916;-75
2023/09/24 21:47:30;;;;;;;;;;;11.80;99.90;;;;;;20936133;28;19916;-76
2023/09/24 21:57:31;;;;;;;;;;;11.70;99.90;;;;;;20928253;28;19913;-74
2023/09/24 22:07:32;;;;;;;;;;;11.60;99.90;;;;;;20916675;28;19959;-74
2023/09/24 22:17:33;;;;;;;;;;;11.60;99.90;;;;;;20935182;28;20412;-74
2023/09/24 22:27:34;;;;;;;;;;;11.60;99.90;;;;;;20927604;28;20331;-75
2023/09/24 22:37:34;;;;;;;;;;;11.30;99.90;;;;;;20931397;28;19913;-75
2023/09/24 22:47:36;;;;;;;;;;;11.30;99.90;;;;;;20931154;28;19917;-74
2023/09/24 22:57:37;;;;;;;;;;;11.30;99.90;;;;;;20926313;28;19912;-75
2023/09/24 23:07:38;;;;;;;;;;;11.10;99.90;;;;;;20931265;28;19923;-74
2023/09/24 23:17:39;;;;;;;;;;;10.80;99.90;;;;;;20941879;28;20275;-75
2023/09/24 23:27:39;;;;;;;;;;;10.50;99.90;;;;;;20932877;28;20003;-75
2023/09/24 23:37:40;;;;;;;;;;;10.40;99.90;;;;;;20928534;28;20015;-75
2023/09/24 23:47:40;;;;;;;;;;;10.20;99.90;;;;;;20928851;28;20011;-75
2023/09/24 23:57:41;;;;;;;;;;;10.20;99.90;;;;;;20931873;28;20003;-75
